createdAt,value
2018-12-05T00:01:33.997Z,4.52
2018-12-05T00:06:36.578Z,4.44
2018-12-05T00:11:39.296Z,4.35
2018-12-05T00:16:41.977Z,4.64
2018-12-05T00:21:44.638Z,4.72
2018-12-05T00:26:47.848Z,4.40
2018-12-05T00:31:50.466Z,4.33
2018-12-05T00:36:53.430Z,4.51
2018-12-05T00:41:56.508Z,4.35
2018-12-05T00:46:59.819Z,4.22
2018-12-05T00:52:02.474Z,4.15
2018-12-05T00:57:05.244Z,4.06
2018-12-05T01:02:08.856Z,3.95
2018-12-05T01:07:11.631Z,3.59
2018-12-05T01:12:14.274Z,3.64
2018-12-05T01:17:17.580Z,3.80
2018-12-05T01:22:20.232Z,3.75
2018-12-05T01:27:22.960Z,3.70
2018-12-05T01:32:26.327Z,3.54
2018-12-05T01:37:29.050Z,3.60
2018-12-05T01:42:31.641Z,3.60
2018-12-05T01:47:34.249Z,3.50
2018-12-05T01:52:37.041Z,3.61
2018-12-05T01:57:39.787Z,3.53
2018-12-05T02:02:42.543Z,3.10
2018-12-05T02:07:45.233Z,3.43
2018-12-05T02:12:47.838Z,3.16
2018-12-05T02:17:50.584Z,3.36
2018-12-05T02:22:54.049Z,3.00
2018-12-05T02:27:56.857Z,2.97
2018-12-05T02:32:59.653Z,2.70
2018-12-05T02:38:02.293Z,2.92
2018-12-05T02:43:05.149Z,2.99
2018-12-05T02:48:07.837Z,2.82
2018-12-05T02:53:10.632Z,2.42
2018-12-05T02:58:13.438Z,2.22
2018-12-05T03:03:16.311Z,2.51
2018-12-05T03:08:19.111Z,2.72
2018-12-05T03:13:21.847Z,2.48
2018-12-05T03:18:24.534Z,2.28
2018-12-05T03:23:27.912Z,2.16
2018-12-05T03:28:30.522Z,2.32
2018-12-05T03:33:34.028Z,2.28
2018-12-05T03:38:37.772Z,2.31
2018-12-05T03:43:40.608Z,2.38
2018-12-05T03:48:43.396Z,2.39
2018-12-05T03:53:46.181Z,2.46
2018-12-05T03:58:48.980Z,2.17
2018-12-05T04:03:51.777Z,2.22
2018-12-05T04:08:54.479Z,1.97
2018-12-05T04:13:57.063Z,2.28
2018-12-05T04:18:59.874Z,2.19
2018-12-05T04:24:02.530Z,2.09
2018-12-05T04:29:05.214Z,2.18
2018-12-05T04:34:08.386Z,1.97
2018-12-05T04:39:10.980Z,1.80
2018-12-05T04:44:13.604Z,2.01
2018-12-05T04:49:16.981Z,1.97
2018-12-05T04:54:20.701Z,1.92
2018-12-05T04:59:23.370Z,2.01
2018-12-05T05:04:26.007Z,2.12
2018-12-05T05:09:28.620Z,1.91
2018-12-05T05:14:31.266Z,1.94
2018-12-05T05:19:33.929Z,1.67
2018-12-05T05:24:36.717Z,1.84
2018-12-05T05:29:39.285Z,1.90
2018-12-05T05:34:42.097Z,1.88
2018-12-05T05:39:45.346Z,1.50
2018-12-05T05:44:48.033Z,1.65
2018-12-05T05:49:50.565Z,1.64
2018-12-05T05:54:53.096Z,1.90
2018-12-05T05:59:55.814Z,1.83
2018-12-05T06:04:58.653Z,1.64
2018-12-05T06:10:01.207Z,2.00
2018-12-05T06:15:04.757Z,2.00
2018-12-05T06:20:07.388Z,2.13
2018-12-05T06:25:09.996Z,1.80
2018-12-05T06:30:13.161Z,1.82
2018-12-05T06:35:15.732Z,1.83
2018-12-05T06:40:18.394Z,1.84
2018-12-05T06:45:21.795Z,1.83
2018-12-05T06:50:24.325Z,1.70
2018-12-05T06:55:26.892Z,1.78
2018-12-05T07:00:29.571Z,1.74
2018-12-05T07:05:32.938Z,1.56
2018-12-05T07:10:35.668Z,1.46
2018-12-05T07:15:38.205Z,1.64
2018-12-05T07:20:40.789Z,1.64
2018-12-05T07:25:43.349Z,1.68
2018-12-05T07:30:45.988Z,1.79
2018-12-05T07:35:48.581Z,1.89
2018-12-05T07:40:51.217Z,1.82
2018-12-05T07:45:53.803Z,1.96
2018-12-05T07:50:56.395Z,1.91
2018-12-05T07:55:58.959Z,1.93
2018-12-05T08:01:01.579Z,2.00
2018-12-05T08:06:04.171Z,2.11
2018-12-05T08:11:06.803Z,2.17
2018-12-05T08:16:09.380Z,2.02
2018-12-05T08:21:12.027Z,2.23
2018-12-05T08:26:14.714Z,2.33
2018-12-05T08:31:17.261Z,2.38
2018-12-05T08:36:19.838Z,2.47
2018-12-05T08:41:22.463Z,2.61
2018-12-05T08:46:25.093Z,2.73
2018-12-05T08:51:27.672Z,2.90
2018-12-05T08:56:30.239Z,2.82
2018-12-05T09:01:32.815Z,2.88
2018-12-05T09:06:35.408Z,3.06
2018-12-05T09:11:38.004Z,3.15
2018-12-05T09:16:40.668Z,3.18
2018-12-05T09:21:43.260Z,3.36
2018-12-05T09:26:46.161Z,3.27
2018-12-05T09:31:49.166Z,3.30
2018-12-05T09:36:52.274Z,3.41
2018-12-05T09:41:55.089Z,3.51
2018-12-05T09:46:57.827Z,3.63
2018-12-05T09:52:00.439Z,3.74
2018-12-05T09:57:03.117Z,3.74
2018-12-05T10:02:05.738Z,3.86
2018-12-05T10:07:08.331Z,3.96
2018-12-05T10:12:11.826Z,4.03
2018-12-05T10:17:14.780Z,4.16
2018-12-05T10:22:17.344Z,4.22
2018-12-05T10:27:19.884Z,4.36
2018-12-05T10:32:22.451Z,4.47
2018-12-05T10:37:25.073Z,4.40
2018-12-05T10:42:27.702Z,4.61
2018-12-05T10:47:30.260Z,4.70
2018-12-05T10:52:33.059Z,4.87
2018-12-05T10:57:35.614Z,4.91
2018-12-05T11:02:44.763Z,4.94
2018-12-05T11:07:52.980Z,5.04
2018-12-05T11:13:01.166Z,5.05
2018-12-05T11:18:10.298Z,5.19
2018-12-05T11:23:18.449Z,5.20
2018-12-05T11:28:21.174Z,5.18
2018-12-05T11:33:24.525Z,5.37
2018-12-05T11:38:28.146Z,5.54
2018-12-05T11:43:31.585Z,5.61
2018-12-05T11:48:34.178Z,5.66
2018-12-05T11:53:36.743Z,5.81
2018-12-05T11:58:39.441Z,5.87
2018-12-05T12:03:42.889Z,5.98
2018-12-05T12:08:45.555Z,6.04
2018-12-05T12:13:48.169Z,6.12
2018-12-05T12:18:50.797Z,6.14
2018-12-05T12:23:53.414Z,6.24
2018-12-05T12:28:56.095Z,6.32
2018-12-05T12:33:59.310Z,6.45
2018-12-05T12:39:01.881Z,6.46
2018-12-05T12:44:04.509Z,6.49
2018-12-05T12:49:08.066Z,6.53
2018-12-05T12:54:10.712Z,6.52
2018-12-05T12:59:13.350Z,6.51
2018-12-05T13:04:16.169Z,6.49
2018-12-05T13:09:18.922Z,6.57
2018-12-05T13:14:21.619Z,6.67
2018-12-05T13:19:24.474Z,6.73
2018-12-05T13:24:27.814Z,6.57
2018-12-05T13:29:30.410Z,6.65
2018-12-05T13:34:32.969Z,6.61
2018-12-05T13:39:35.650Z,6.63
2018-12-05T13:44:38.206Z,6.45
2018-12-05T13:49:40.749Z,6.47
2018-12-05T13:54:44.159Z,6.51
2018-12-05T13:59:46.776Z,6.39
2018-12-05T14:04:49.380Z,6.45
2018-12-05T14:09:52.136Z,6.47
2018-12-05T14:14:55.957Z,6.43
2018-12-05T14:19:59.451Z,6.34
2018-12-05T14:25:02.185Z,6.25
2018-12-05T14:30:07.074Z,6.15
2018-12-05T14:35:09.657Z,6.02
2018-12-05T14:40:12.205Z,5.98
2018-12-05T14:45:14.771Z,5.95
2018-12-05T14:50:17.516Z,5.90
2018-12-05T14:55:20.137Z,5.82
2018-12-05T15:00:22.680Z,5.59
2018-12-05T15:05:26.050Z,5.72
2018-12-05T15:10:28.616Z,5.63
2018-12-05T15:15:31.169Z,5.33
2018-12-05T15:20:33.878Z,5.21
2018-12-05T15:25:37.014Z,5.28
2018-12-05T15:30:40.531Z,5.15
2018-12-05T15:35:43.352Z,5.09
2018-12-05T15:45:48.382Z,4.98
2018-12-05T15:50:50.974Z,4.91
2018-12-05T15:55:53.519Z,4.92
2018-12-05T16:00:56.138Z,4.89
2018-12-05T16:05:58.709Z,4.77
2018-12-05T16:11:01.262Z,4.81
2018-12-05T16:16:03.918Z,5.02
2018-12-05T16:21:06.588Z,4.93
2018-12-05T16:26:10.813Z,4.82
2018-12-05T16:31:13.713Z,4.72
2018-12-05T16:36:16.362Z,4.58
2018-12-05T16:41:19.076Z,4.56
2018-12-05T16:46:21.629Z,4.49
2018-12-05T16:51:24.259Z,4.36
2018-12-05T16:56:26.824Z,4.29
2018-12-05T17:01:29.418Z,4.41
2018-12-05T17:06:32.092Z,4.36
2018-12-05T17:11:34.697Z,4.30
2018-12-05T17:16:37.374Z,4.17
2018-12-05T17:21:40.059Z,4.15
2018-12-05T17:26:42.765Z,4.09
2018-12-05T17:31:46.444Z,3.93
2018-12-05T17:36:49.010Z,3.91
2018-12-05T17:41:51.545Z,3.64
2018-12-05T17:46:54.858Z,3.79
2018-12-05T17:51:57.517Z,3.79
2018-12-05T17:57:00.097Z,3.78
2018-12-05T18:02:02.641Z,3.98
2018-12-05T18:07:06.840Z,4.00
2018-12-05T18:12:09.682Z,3.81
2018-12-05T18:17:12.314Z,3.86
2018-12-05T18:22:15.697Z,3.76
2018-12-05T18:27:18.315Z,3.87
2018-12-05T18:32:20.911Z,3.99
2018-12-05T18:37:23.548Z,3.93
2018-12-05T18:42:26.153Z,3.96
2018-12-05T18:47:28.728Z,3.98
2018-12-05T18:52:31.345Z,3.95
2018-12-05T18:57:33.909Z,4.12
2018-12-05T19:02:36.503Z,4.02
2018-12-05T19:07:39.119Z,4.05
2018-12-05T19:12:41.719Z,4.14
2018-12-05T19:17:44.356Z,3.98
2018-12-05T19:22:46.923Z,3.83
2018-12-05T19:27:49.562Z,4.00
2018-12-05T19:32:52.167Z,4.06
2018-12-05T19:37:55.599Z,4.00
2018-12-05T19:42:58.210Z,3.77
2018-12-05T19:48:00.834Z,3.91
2018-12-05T19:53:03.393Z,3.83
2018-12-05T19:58:06.064Z,3.81
2018-12-05T20:03:09.419Z,3.79
2018-12-05T20:08:12.613Z,3.83
2018-12-05T20:13:15.229Z,3.80
2018-12-05T20:18:19.348Z,3.86
2018-12-05T20:23:22.639Z,3.84
2018-12-05T20:28:25.381Z,3.79
2018-12-05T20:33:28.476Z,3.75
2018-12-05T20:38:31.313Z,3.68
2018-12-05T20:43:33.983Z,3.80
2018-12-05T20:48:36.558Z,3.73
2018-12-05T20:53:40.067Z,3.71
2018-12-05T20:58:42.721Z,3.70
2018-12-05T21:03:45.766Z,3.72
2018-12-05T21:08:48.443Z,3.77
2018-12-05T21:13:51.088Z,3.85
2018-12-05T21:18:54.161Z,3.90
2018-12-05T21:23:57.321Z,3.74
2018-12-05T21:28:59.940Z,3.78
2018-12-05T21:34:02.513Z,3.90
2018-12-05T21:39:06.972Z,3.87
2018-12-05T21:44:09.606Z,3.88
2018-12-05T21:49:12.238Z,3.88
2018-12-05T21:54:14.964Z,3.89
2018-12-05T21:59:17.589Z,3.86
2018-12-05T22:04:20.233Z,3.86
2018-12-05T22:09:22.809Z,3.82
2018-12-05T22:14:25.637Z,3.82
2018-12-05T22:19:28.273Z,3.76
2018-12-05T22:24:30.890Z,3.69
2018-12-05T22:29:33.597Z,3.78
2018-12-05T22:34:36.453Z,3.76
2018-12-05T22:39:39.102Z,3.80
2018-12-05T22:44:41.738Z,3.89
2018-12-05T22:49:44.335Z,3.79
2018-12-05T22:54:46.881Z,3.84
2018-12-05T22:59:49.482Z,3.88
2018-12-05T23:04:52.026Z,3.86
2018-12-05T23:09:54.658Z,3.88
2018-12-05T23:14:57.201Z,3.92
2018-12-05T23:19:59.927Z,4.03
2018-12-05T23:25:02.933Z,3.93
2018-12-05T23:30:06.361Z,3.98
2018-12-05T23:35:09.130Z,3.98
2018-12-05T23:40:11.785Z,3.93
2018-12-05T23:45:14.600Z,4.13
2018-12-05T23:50:17.368Z,4.17
2018-12-05T23:55:19.924Z,4.22
